sensor_id;sensor_type;location;lat;lon;timestamp;P1;durP1;ratioP1;P2;durP2;ratioP2
54121;SDS011;40029;58.708;50.190;2024-01-10T00:00:43;9.77;;;3.33;;
54121;SDS011;40029;58.708;50.190;2024-01-10T00:03:14;12.90;;;4.67;;
54121;SDS011;40029;58.708;50.190;2024-01-10T00:05:46;7.20;;;3.90;;
54121;SDS011;40029;58.708;50.190;2024-01-10T00:08:17;6.57;;;2.87;;
54121;SDS011;40029;58.708;50.190;2024-01-10T00:10:48;8.33;;;2.57;;
54121;SDS011;40029;58.708;50.190;2024-01-10T00:13:19;5.13;;;1.60;;
54121;SDS011;40029;58.708;50.190;2024-01-10T00:15:52;8.02;;;3.72;;
54121;SDS011;40029;58.708;50.190;2024-01-10T00:18:24;11.93;;;3.13;;
54121;SDS011;40029;58.708;50.190;2024-01-10T00:20:55;15.10;;;4.27;;
54121;SDS011;40029;58.708;50.190;2024-01-10T00:23:26;6.97;;;2.07;;
54121;SDS011;40029;58.708;50.190;2024-01-10T00:25:58;10.00;;;4.73;;
54121;SDS011;40029;58.708;50.190;2024-01-10T00:28:29;14.97;;;2.70;;
54121;SDS011;40029;58.708;50.190;2024-01-10T00:31:00;15.43;;;3.23;;
54121;SDS011;40029;58.708;50.190;2024-01-10T00:33:31;10.87;;;3.00;;
54121;SDS011;40029;58.708;50.190;2024-01-10T00:36:02;10.03;;;2.67;;
54121;SDS011;40029;58.708;50.190;2024-01-10T00:38:34;11.77;;;3.47;;
54121;SDS011;40029;58.708;50.190;2024-01-10T00:41:05;22.93;;;3.67;;
54121;SDS011;40029;58.708;50.190;2024-01-10T00:43:54;23.70;;;3.63;;
54121;SDS011;40029;58.708;50.190;2024-01-10T00:46:25;14.87;;;4.33;;
54121;SDS011;40029;58.708;50.190;2024-01-10T00:48:56;12.87;;;4.47;;
54121;SDS011;40029;58.708;50.190;2024-01-10T00:51:27;9.80;;;2.60;;
54121;SDS011;40029;58.708;50.190;2024-01-10T00:53:59;4.67;;;2.73;;
54121;SDS011;40029;58.708;50.190;2024-01-10T00:56:30;14.77;;;2.97;;
54121;SDS011;40029;58.708;50.190;2024-01-10T00:59:01;3.73;;;2.33;;
54121;SDS011;40029;58.708;50.190;2024-01-10T01:01:32;7.27;;;2.40;;
54121;SDS011;40029;58.708;50.190;2024-01-10T01:04:03;5.03;;;2.13;;
54121;SDS011;40029;58.708;50.190;2024-01-10T01:06:34;2.10;;;1.43;;
54121;SDS011;40029;58.708;50.190;2024-01-10T01:09:05;3.40;;;1.33;;
54121;SDS011;40029;58.708;50.190;2024-01-10T01:11:36;4.10;;;2.03;;
54121;SDS011;40029;58.708;50.190;2024-01-10T01:14:26;2.10;;;1.27;;
54121;SDS011;40029;58.708;50.190;2024-01-10T01:16:57;1.93;;;1.53;;
54121;SDS011;40029;58.708;50.190;2024-01-10T01:19:28;8.67;;;1.20;;
54121;SDS011;40029;58.708;50.190;2024-01-10T01:21:59;5.20;;;2.17;;
54121;SDS011;40029;58.708;50.190;2024-01-10T01:24:31;3.77;;;1.80;;
54121;SDS011;40029;58.708;50.190;2024-01-10T01:27:02;4.80;;;1.83;;
54121;SDS011;40029;58.708;50.190;2024-01-10T01:29:34;10.70;;;3.30;;
54121;SDS011;40029;58.708;50.190;2024-01-10T01:32:05;2.27;;;1.20;;
54121;SDS011;40029;58.708;50.190;2024-01-10T01:34:54;4.30;;;3.03;;
54121;SDS011;40029;58.708;50.190;2024-01-10T01:37:26;5.40;;;1.40;;
54121;SDS011;40029;58.708;50.190;2024-01-10T01:39:57;6.03;;;1.50;;
54121;SDS011;40029;58.708;50.190;2024-01-10T01:42:28;2.73;;;1.77;;
54121;SDS011;40029;58.708;50.190;2024-01-10T01:44:59;6.87;;;1.63;;
54121;SDS011;40029;58.708;50.190;2024-01-10T01:47:31;6.87;;;2.57;;
54121;SDS011;40029;58.708;50.190;2024-01-10T01:50:03;9.53;;;2.57;;
54121;SDS011;40029;58.708;50.190;2024-01-10T01:52:34;9.47;;;1.83;;
54121;SDS011;40029;58.708;50.190;2024-01-10T01:55:06;9.03;;;2.10;;
54121;SDS011;40029;58.708;50.190;2024-01-10T01:57:39;3.50;;;1.92;;
54121;SDS011;40029;58.708;50.190;2024-01-10T02:00:10;2.53;;;2.00;;
54121;SDS011;40029;58.708;50.190;2024-01-10T02:02:42;5.60;;;1.87;;
54121;SDS011;40029;58.708;50.190;2024-01-10T02:05:14;1.90;;;1.45;;
54121;SDS011;40029;58.708;50.190;2024-01-10T02:07:46;9.93;;;2.57;;
54121;SDS011;40029;58.708;50.190;2024-01-10T02:10:17;3.63;;;1.70;;
54121;SDS011;40029;58.708;50.190;2024-01-10T02:12:50;5.65;;;2.17;;
54121;SDS011;40029;58.708;50.190;2024-01-10T02:15:21;3.43;;;1.53;;
54121;SDS011;40029;58.708;50.190;2024-01-10T02:18:12;9.33;;;1.70;;
54121;SDS011;40029;58.708;50.190;2024-01-10T02:20:44;4.20;;;1.77;;
54121;SDS011;40029;58.708;50.190;2024-01-10T02:23:16;8.23;;;5.30;;
54121;SDS011;40029;58.708;50.190;2024-01-10T02:25:47;9.53;;;3.23;;
54121;SDS011;40029;58.708;50.190;2024-01-10T02:28:18;6.40;;;2.20;;
54121;SDS011;40029;58.708;50.190;2024-01-10T02:30:50;4.40;;;2.13;;
54121;SDS011;40029;58.708;50.190;2024-01-10T02:33:23;11.93;;;3.37;;
54121;SDS011;40029;58.708;50.190;2024-01-10T02:36:13;10.27;;;2.03;;
54121;SDS011;40029;58.708;50.190;2024-01-10T02:38:44;6.60;;;2.73;;
54121;SDS011;40029;58.708;50.190;2024-01-10T02:41:15;8.30;;;3.63;;
54121;SDS011;40029;58.708;50.190;2024-01-10T02:43:46;5.67;;;1.93;;
54121;SDS011;40029;58.708;50.190;2024-01-10T02:46:18;11.70;;;3.47;;
54121;SDS011;40029;58.708;50.190;2024-01-10T02:48:50;10.55;;;3.50;;
54121;SDS011;40029;58.708;50.190;2024-01-10T02:51:22;12.77;;;4.27;;
54121;SDS011;40029;58.708;50.190;2024-01-10T02:53:53;12.40;;;3.33;;
54121;SDS011;40029;58.708;50.190;2024-01-10T02:56:24;14.60;;;4.30;;
54121;SDS011;40029;58.708;50.190;2024-01-10T02:58:55;18.77;;;4.83;;
54121;SDS011;40029;58.708;50.190;2024-01-10T03:01:45;13.97;;;5.83;;
54121;SDS011;40029;58.708;50.190;2024-01-10T03:04:16;22.90;;;6.87;;
54121;SDS011;40029;58.708;50.190;2024-01-10T03:06:47;22.77;;;6.83;;
54121;SDS011;40029;58.708;50.190;2024-01-10T03:09:18;20.87;;;6.77;;
54121;SDS011;40029;58.708;50.190;2024-01-10T03:11:49;29.97;;;8.43;;
54121;SDS011;40029;58.708;50.190;2024-01-10T03:14:20;32.50;;;8.50;;
54121;SDS011;40029;58.708;50.190;2024-01-10T03:16:52;31.07;;;10.10;;
54121;SDS011;40029;58.708;50.190;2024-01-10T03:19:24;26.50;;;7.73;;
54121;SDS011;40029;58.708;50.190;2024-01-10T03:21:55;35.93;;;8.67;;
54121;SDS011;40029;58.708;50.190;2024-01-10T03:24:26;16.13;;;6.13;;
54121;SDS011;40029;58.708;50.190;2024-01-10T03:27:16;8.33;;;3.20;;
54121;SDS011;40029;58.708;50.190;2024-01-10T03:29:47;19.63;;;5.80;;
54121;SDS011;40029;58.708;50.190;2024-01-10T03:32:18;9.87;;;3.77;;
54121;SDS011;40029;58.708;50.190;2024-01-10T03:34:50;19.60;;;5.30;;
54121;SDS011;40029;58.708;50.190;2024-01-10T03:37:22;15.27;;;5.40;;
54121;SDS011;40029;58.708;50.190;2024-01-10T03:40:11;3.43;;;1.97;;
54121;SDS011;40029;58.708;50.190;2024-01-10T03:42:42;16.43;;;6.67;;
54121;SDS011;40029;58.708;50.190;2024-01-10T03:45:14;22.37;;;6.40;;
54121;SDS011;40029;58.708;50.190;2024-01-10T03:47:47;11.83;;;4.00;;
54121;SDS011;40029;58.708;50.190;2024-01-10T03:52:51;17.17;;;4.60;;
54121;SDS011;40029;58.708;50.190;2024-01-10T03:55:23;12.07;;;4.10;;
54121;SDS011;40029;58.708;50.190;2024-01-10T03:57:54;16.53;;;5.20;;
54121;SDS011;40029;58.708;50.190;2024-01-10T04:00:25;8.93;;;4.63;;
54121;SDS011;40029;58.708;50.190;2024-01-10T04:02:56;13.97;;;3.80;;
54121;SDS011;40029;58.708;50.190;2024-01-10T04:05:46;22.77;;;6.73;;
54121;SDS011;40029;58.708;50.190;2024-01-10T04:08:17;37.77;;;9.83;;
54121;SDS011;40029;58.708;50.190;2024-01-10T04:10:48;29.13;;;10.13;;
54121;SDS011;40029;58.708;50.190;2024-01-10T04:13:19;19.80;;;7.20;;
54121;SDS011;40029;58.708;50.190;2024-01-10T04:15:50;28.83;;;7.63;;
54121;SDS011;40029;58.708;50.190;2024-01-10T04:18:22;18.00;;;5.90;;
54121;SDS011;40029;58.708;50.190;2024-01-10T04:20:53;32.27;;;9.90;;
54121;SDS011;40029;58.708;50.190;2024-01-10T04:23:43;47.70;;;8.13;;
54121;SDS011;40029;58.708;50.190;2024-01-10T04:26:32;33.43;;;8.83;;
54121;SDS011;40029;58.708;50.190;2024-01-10T04:29:03;28.83;;;9.53;;
54121;SDS011;40029;58.708;50.190;2024-01-10T04:31:35;39.53;;;8.53;;
54121;SDS011;40029;58.708;50.190;2024-01-10T04:34:06;24.67;;;6.47;;
54121;SDS011;40029;58.708;50.190;2024-01-10T04:36:37;36.63;;;8.17;;
54121;SDS011;40029;58.708;50.190;2024-01-10T04:39:08;28.63;;;8.57;;
54121;SDS011;40029;58.708;50.190;2024-01-10T04:41:39;31.20;;;9.47;;
54121;SDS011;40029;58.708;50.190;2024-01-10T04:44:11;23.00;;;11.47;;
54121;SDS011;40029;58.708;50.190;2024-01-10T04:46:42;30.20;;;11.07;;
54121;SDS011;40029;58.708;50.190;2024-01-10T04:49:13;29.20;;;9.00;;
54121;SDS011;40029;58.708;50.190;2024-01-10T04:52:03;32.43;;;9.83;;
54121;SDS011;40029;58.708;50.190;2024-01-10T04:54:53;36.87;;;11.13;;
54121;SDS011;40029;58.708;50.190;2024-01-10T04:57:24;44.80;;;9.03;;
54121;SDS011;40029;58.708;50.190;2024-01-10T04:59:55;31.50;;;6.53;;
54121;SDS011;40029;58.708;50.190;2024-01-10T05:02:26;41.33;;;9.13;;
54121;SDS011;40029;58.708;50.190;2024-01-10T05:04:57;25.77;;;9.00;;
54121;SDS011;40029;58.708;50.190;2024-01-10T05:07:29;33.10;;;11.00;;
54121;SDS011;40029;58.708;50.190;2024-01-10T05:10:00;38.43;;;9.93;;
54121;SDS011;40029;58.708;50.190;2024-01-10T05:12:31;44.33;;;10.80;;
54121;SDS011;40029;58.708;50.190;2024-01-10T05:15:21;29.37;;;10.77;;
54121;SDS011;40029;58.708;50.190;2024-01-10T05:17:52;32.67;;;9.30;;
54121;SDS011;40029;58.708;50.190;2024-01-10T05:20:23;26.50;;;8.47;;
54121;SDS011;40029;58.708;50.190;2024-01-10T05:22:54;57.37;;;14.10;;
54121;SDS011;40029;58.708;50.190;2024-01-10T05:25:29;39.03;;;9.83;;
54121;SDS011;40029;58.708;50.190;2024-01-10T05:28:00;38.63;;;11.20;;
54121;SDS011;40029;58.708;50.190;2024-01-10T05:30:31;34.80;;;11.47;;
54121;SDS011;40029;58.708;50.190;2024-01-10T05:33:03;26.07;;;9.87;;
54121;SDS011;40029;58.708;50.190;2024-01-10T05:35:34;34.30;;;10.63;;
54121;SDS011;40029;58.708;50.190;2024-01-10T05:38:08;46.77;;;14.80;;
54121;SDS011;40029;58.708;50.190;2024-01-10T05:40:39;49.07;;;12.70;;
54121;SDS011;40029;58.708;50.190;2024-01-10T05:43:11;25.40;;;11.13;;
54121;SDS011;40029;58.708;50.190;2024-01-10T05:45:42;34.27;;;10.60;;
54121;SDS011;40029;58.708;50.190;2024-01-10T05:48:13;30.93;;;10.60;;
54121;SDS011;40029;58.708;50.190;2024-01-10T05:50:44;46.53;;;9.30;;
54121;SDS011;40029;58.708;50.190;2024-01-10T05:53:15;16.33;;;6.97;;
54121;SDS011;40029;58.708;50.190;2024-01-10T05:55:47;31.43;;;9.23;;
54121;SDS011;40029;58.708;50.190;2024-01-10T05:58:18;25.47;;;7.67;;
54121;SDS011;40029;58.708;50.190;2024-01-10T06:00:50;27.57;;;8.87;;
54121;SDS011;40029;58.708;50.190;2024-01-10T06:03:22;30.63;;;9.33;;
54121;SDS011;40029;58.708;50.190;2024-01-10T06:05:55;30.10;;;12.45;;
54121;SDS011;40029;58.708;50.190;2024-01-10T06:08:26;71.87;;;20.83;;
54121;SDS011;40029;58.708;50.190;2024-01-10T06:10:59;62.90;;;15.82;;
54121;SDS011;40029;58.708;50.190;2024-01-10T06:13:32;46.23;;;13.70;;
54121;SDS011;40029;58.708;50.190;2024-01-10T06:16:04;38.30;;;16.00;;
54121;SDS011;40029;58.708;50.190;2024-01-10T06:18:54;59.13;;;12.80;;
54121;SDS011;40029;58.708;50.190;2024-01-10T06:21:25;46.37;;;14.07;;
54121;SDS011;40029;58.708;50.190;2024-01-10T06:23:56;54.87;;;13.90;;
54121;SDS011;40029;58.708;50.190;2024-01-10T06:26:27;35.20;;;13.20;;
54121;SDS011;40029;58.708;50.190;2024-01-10T06:28:58;34.07;;;14.10;;
54121;SDS011;40029;58.708;50.190;2024-01-10T06:31:30;41.90;;;17.37;;
54121;SDS011;40029;58.708;50.190;2024-01-10T06:34:01;54.27;;;15.00;;
54121;SDS011;40029;58.708;50.190;2024-01-10T06:36:32;73.93;;;17.90;;
54121;SDS011;40029;58.708;50.190;2024-01-10T06:39:03;49.67;;;15.83;;
54121;SDS011;40029;58.708;50.190;2024-01-10T06:41:34;38.60;;;13.33;;
54121;SDS011;40029;58.708;50.190;2024-01-10T06:44:06;33.60;;;10.93;;
54121;SDS011;40029;58.708;50.190;2024-01-10T06:46:37;42.30;;;12.77;;
54121;SDS011;40029;58.708;50.190;2024-01-10T06:49:08;42.70;;;12.47;;
54121;SDS011;40029;58.708;50.190;2024-01-10T06:51:40;29.93;;;12.07;;
54121;SDS011;40029;58.708;50.190;2024-01-10T06:54:11;36.83;;;10.53;;
54121;SDS011;40029;58.708;50.190;2024-01-10T06:59:15;28.50;;;11.27;;
54121;SDS011;40029;58.708;50.190;2024-01-10T07:01:50;51.07;;;12.50;;
54121;SDS011;40029;58.708;50.190;2024-01-10T07:04:22;31.20;;;13.67;;
54121;SDS011;40029;58.708;50.190;2024-01-10T07:06:55;54.20;;;13.90;;
54121;SDS011;40029;58.708;50.190;2024-01-10T07:09:26;49.57;;;13.10;;
54121;SDS011;40029;58.708;50.190;2024-01-10T07:11:57;50.87;;;17.97;;
54121;SDS011;40029;58.708;50.190;2024-01-10T07:14:28;96.63;;;20.77;;
54121;SDS011;40029;58.708;50.190;2024-01-10T07:17:18;48.83;;;13.53;;
54121;SDS011;40029;58.708;50.190;2024-01-10T07:19:49;38.23;;;15.53;;
54121;SDS011;40029;58.708;50.190;2024-01-10T07:22:20;54.53;;;15.27;;
54121;SDS011;40029;58.708;50.190;2024-01-10T07:24:51;60.17;;;18.13;;
54121;SDS011;40029;58.708;50.190;2024-01-10T07:27:22;163.87;;;31.10;;
54121;SDS011;40029;58.708;50.190;2024-01-10T07:29:54;109.17;;;23.80;;
54121;SDS011;40029;58.708;50.190;2024-01-10T07:32:25;113.43;;;29.03;;
54121;SDS011;40029;58.708;50.190;2024-01-10T07:34:56;93.10;;;21.67;;
54121;SDS011;40029;58.708;50.190;2024-01-10T07:37:28;103.88;;;28.48;;
54121;SDS011;40029;58.708;50.190;2024-01-10T07:39:59;95.70;;;24.03;;
54121;SDS011;40029;58.708;50.190;2024-01-10T07:42:31;43.37;;;15.17;;
54121;SDS011;40029;58.708;50.190;2024-01-10T07:45:02;69.60;;;21.57;;
54121;SDS011;40029;58.708;50.190;2024-01-10T07:47:38;47.93;;;19.00;;
54121;SDS011;40029;58.708;50.190;2024-01-10T07:50:10;63.53;;;22.07;;
54121;SDS011;40029;58.708;50.190;2024-01-10T07:52:45;65.87;;;19.63;;
54121;SDS011;40029;58.708;50.190;2024-01-10T07:55:35;86.67;;;30.40;;
54121;SDS011;40029;58.708;50.190;2024-01-10T07:58:06;83.27;;;27.07;;
54121;SDS011;40029;58.708;50.190;2024-01-10T08:00:56;97.70;;;27.27;;
54121;SDS011;40029;58.708;50.190;2024-01-10T08:03:27;90.30;;;30.07;;
54121;SDS011;40029;58.708;50.190;2024-01-10T08:06:17;95.00;;;25.20;;
54121;SDS011;40029;58.708;50.190;2024-01-10T08:08:48;112.37;;;27.50;;
54121;SDS011;40029;58.708;50.190;2024-01-10T08:11:19;82.93;;;25.60;;
54121;SDS011;40029;58.708;50.190;2024-01-10T08:13:50;59.23;;;17.20;;
54121;SDS011;40029;58.708;50.190;2024-01-10T08:16:22;50.87;;;18.03;;
54121;SDS011;40029;58.708;50.190;2024-01-10T08:18:53;71.57;;;21.77;;
54121;SDS011;40029;58.708;50.190;2024-01-10T08:21:24;87.03;;;21.87;;
54121;SDS011;40029;58.708;50.190;2024-01-10T08:23:55;46.87;;;17.53;;
54121;SDS011;40029;58.708;50.190;2024-01-10T08:26:27;78.67;;;19.60;;
54121;SDS011;40029;58.708;50.190;2024-01-10T08:28:58;93.47;;;27.80;;
54121;SDS011;40029;58.708;50.190;2024-01-10T08:31:29;77.67;;;22.40;;
54121;SDS011;40029;58.708;50.190;2024-01-10T08:34:01;74.00;;;19.93;;
54121;SDS011;40029;58.708;50.190;2024-01-10T08:36:32;56.33;;;17.13;;
54121;SDS011;40029;58.708;50.190;2024-01-10T08:39:03;24.67;;;8.40;;
54121;SDS011;40029;58.708;50.190;2024-01-10T08:41:35;82.33;;;21.90;;
54121;SDS011;40029;58.708;50.190;2024-01-10T08:44:08;120.90;;;31.55;;
54121;SDS011;40029;58.708;50.190;2024-01-10T08:46:39;72.57;;;17.50;;
54121;SDS011;40029;58.708;50.190;2024-01-10T08:49:29;25.00;;;11.83;;
54121;SDS011;40029;58.708;50.190;2024-01-10T08:52:00;33.73;;;10.10;;
54121;SDS011;40029;58.708;50.190;2024-01-10T08:54:31;34.83;;;11.57;;
54121;SDS011;40029;58.708;50.190;2024-01-10T08:57:03;30.90;;;10.30;;
54121;SDS011;40029;58.708;50.190;2024-01-10T08:59:34;14.60;;;5.87;;
54121;SDS011;40029;58.708;50.190;2024-01-10T09:02:05;35.20;;;10.37;;
54121;SDS011;40029;58.708;50.190;2024-01-10T09:04:38;23.20;;;8.07;;
54121;SDS011;40029;58.708;50.190;2024-01-10T09:07:10;26.97;;;8.90;;
54121;SDS011;40029;58.708;50.190;2024-01-10T09:09:41;35.63;;;9.67;;
54121;SDS011;40029;58.708;50.190;2024-01-10T09:12:12;26.77;;;8.93;;
54121;SDS011;40029;58.708;50.190;2024-01-10T09:14:44;26.40;;;11.23;;
54121;SDS011;40029;58.708;50.190;2024-01-10T09:17:15;31.67;;;9.27;;
54121;SDS011;40029;58.708;50.190;2024-01-10T09:19:46;20.70;;;6.57;;
54121;SDS011;40029;58.708;50.190;2024-01-10T09:22:18;34.27;;;7.57;;
54121;SDS011;40029;58.708;50.190;2024-01-10T09:25:07;23.67;;;6.43;;
54121;SDS011;40029;58.708;50.190;2024-01-10T09:27:39;11.83;;;6.77;;
54121;SDS011;40029;58.708;50.190;2024-01-10T09:30:15;24.47;;;6.93;;
54121;SDS011;40029;58.708;50.190;2024-01-10T09:32:47;16.93;;;6.13;;
54121;SDS011;40029;58.708;50.190;2024-01-10T09:35:18;19.27;;;6.43;;
54121;SDS011;40029;58.708;50.190;2024-01-10T09:37:49;13.30;;;5.60;;
54121;SDS011;40029;58.708;50.190;2024-01-10T09:40:20;21.90;;;4.43;;
54121;SDS011;40029;58.708;50.190;2024-01-10T09:42:53;21.10;;;8.13;;
54121;SDS011;40029;58.708;50.190;2024-01-10T09:45:25;21.80;;;5.95;;
54121;SDS011;40029;58.708;50.190;2024-01-10T09:47:59;40.50;;;8.87;;
54121;SDS011;40029;58.708;50.190;2024-01-10T09:50:30;29.73;;;8.57;;
54121;SDS011;40029;58.708;50.190;2024-01-10T09:53:05;7.83;;;2.70;;
54121;SDS011;40029;58.708;50.190;2024-01-10T09:55:37;19.23;;;6.70;;
54121;SDS011;40029;58.708;50.190;2024-01-10T09:58:09;12.53;;;3.50;;
54121;SDS011;40029;58.708;50.190;2024-01-10T10:00:41;24.97;;;7.47;;
54121;SDS011;40029;58.708;50.190;2024-01-10T10:03:12;15.67;;;4.77;;
54121;SDS011;40029;58.708;50.190;2024-01-10T10:05:44;18.93;;;6.63;;
54121;SDS011;40029;58.708;50.190;2024-01-10T10:08:16;23.57;;;5.37;;
54121;SDS011;40029;58.708;50.190;2024-01-10T10:10:53;15.77;;;4.83;;
54121;SDS011;40029;58.708;50.190;2024-01-10T10:13:27;12.77;;;5.80;;
54121;SDS011;40029;58.708;50.190;2024-01-10T10:16:03;10.37;;;4.63;;
54121;SDS011;40029;58.708;50.190;2024-01-10T10:18:35;25.27;;;6.13;;
54121;SDS011;40029;58.708;50.190;2024-01-10T10:21:25;24.83;;;7.00;;
54121;SDS011;40029;58.708;50.190;2024-01-10T10:24:01;16.57;;;6.87;;
54121;SDS011;40029;58.708;50.190;2024-01-10T10:26:34;20.33;;;6.40;;
54121;SDS011;40029;58.708;50.190;2024-01-10T10:29:06;15.87;;;6.07;;
54121;SDS011;40029;58.708;50.190;2024-01-10T10:31:37;26.57;;;7.63;;
54121;SDS011;40029;58.708;50.190;2024-01-10T10:34:09;37.00;;;11.00;;
54121;SDS011;40029;58.708;50.190;2024-01-10T10:36:42;16.83;;;6.17;;
54121;SDS011;40029;58.708;50.190;2024-01-10T10:39:17;23.70;;;6.30;;
54121;SDS011;40029;58.708;50.190;2024-01-10T10:42:06;21.20;;;6.20;;
54121;SDS011;40029;58.708;50.190;2024-01-10T10:44:38;18.00;;;8.13;;
54121;SDS011;40029;58.708;50.190;2024-01-10T10:47:36;16.57;;;4.80;;
54121;SDS011;40029;58.708;50.190;2024-01-10T10:50:28;14.07;;;5.57;;
54121;SDS011;40029;58.708;50.190;2024-01-10T10:53:03;12.93;;;5.53;;
54121;SDS011;40029;58.708;50.190;2024-01-10T10:55:35;17.27;;;4.97;;
54121;SDS011;40029;58.708;50.190;2024-01-10T10:58:07;12.68;;;4.85;;
54121;SDS011;40029;58.708;50.190;2024-01-10T11:00:59;23.43;;;6.53;;
54121;SDS011;40029;58.708;50.190;2024-01-10T11:03:30;9.57;;;5.07;;
54121;SDS011;40029;58.708;50.190;2024-01-10T11:06:04;11.37;;;5.17;;
54121;SDS011;40029;58.708;50.190;2024-01-10T11:08:57;9.43;;;6.13;;
54121;SDS011;40029;58.708;50.190;2024-01-10T11:17:14;15.27;;;4.23;;
54121;SDS011;40029;58.708;50.190;2024-01-10T11:25:28;3.80;;;1.87;;
54121;SDS011;40029;58.708;50.190;2024-01-10T11:28:18;2.57;;;2.10;;
54121;SDS011;40029;58.708;50.190;2024-01-10T11:30:51;4.80;;;1.77;;
54121;SDS011;40029;58.708;50.190;2024-01-10T11:33:30;4.88;;;2.25;;
54121;SDS011;40029;58.708;50.190;2024-01-10T11:39:02;5.20;;;2.33;;
54121;SDS011;40029;58.708;50.190;2024-01-10T11:41:37;14.23;;;4.80;;
54121;SDS011;40029;58.708;50.190;2024-01-10T11:47:01;11.30;;;4.70;;
54121;SDS011;40029;58.708;50.190;2024-01-10T11:49:35;15.23;;;5.80;;
54121;SDS011;40029;58.708;50.190;2024-01-10T11:52:08;14.83;;;4.30;;
54121;SDS011;40029;58.708;50.190;2024-01-10T11:54:44;7.20;;;3.30;;
54121;SDS011;40029;58.708;50.190;2024-01-10T11:57:26;19.77;;;5.53;;
54121;SDS011;40029;58.708;50.190;2024-01-10T11:59:59;8.10;;;4.03;;
54121;SDS011;40029;58.708;50.190;2024-01-10T12:02:31;11.47;;;3.97;;
54121;SDS011;40029;58.708;50.190;2024-01-10T12:05:03;19.97;;;8.40;;
54121;SDS011;40029;58.708;50.190;2024-01-10T12:07:35;12.30;;;5.53;;
54121;SDS011;40029;58.708;50.190;2024-01-10T12:10:06;16.20;;;5.70;;
54121;SDS011;40029;58.708;50.190;2024-01-10T12:12:38;24.80;;;7.93;;
54121;SDS011;40029;58.708;50.190;2024-01-10T12:15:09;30.67;;;9.03;;
54121;SDS011;40029;58.708;50.190;2024-01-10T12:17:40;36.27;;;10.03;;
54121;SDS011;40029;58.708;50.190;2024-01-10T12:20:11;15.10;;;5.00;;
54121;SDS011;40029;58.708;50.190;2024-01-10T12:22:43;19.37;;;7.13;;
54121;SDS011;40029;58.708;50.190;2024-01-10T12:25:14;14.93;;;5.10;;
54121;SDS011;40029;58.708;50.190;2024-01-10T12:27:45;4.63;;;3.07;;
54121;SDS011;40029;58.708;50.190;2024-01-10T12:30:17;10.60;;;4.23;;
54121;SDS011;40029;58.708;50.190;2024-01-10T12:33:08;24.07;;;7.43;;
54121;SDS011;40029;58.708;50.190;2024-01-10T12:35:40;13.32;;;4.65;;
54121;SDS011;40029;58.708;50.190;2024-01-10T12:38:13;15.40;;;6.80;;
54121;SDS011;40029;58.708;50.190;2024-01-10T12:40:44;14.37;;;4.30;;
54121;SDS011;40029;58.708;50.190;2024-01-10T12:43:16;16.03;;;3.80;;
54121;SDS011;40029;58.708;50.190;2024-01-10T12:45:51;19.80;;;5.77;;
54121;SDS011;40029;58.708;50.190;2024-01-10T12:48:36;64.53;;;13.13;;
54121;SDS011;40029;58.708;50.190;2024-01-10T12:51:12;45.07;;;10.87;;
54121;SDS011;40029;58.708;50.190;2024-01-10T12:53:44;100.43;;;17.90;;
54121;SDS011;40029;58.708;50.190;2024-01-10T12:56:15;64.07;;;13.23;;
54121;SDS011;40029;58.708;50.190;2024-01-10T12:58:46;173.47;;;25.27;;
54121;SDS011;40029;58.708;50.190;2024-01-10T13:01:36;61.70;;;15.47;;
54121;SDS011;40029;58.708;50.190;2024-01-10T13:04:07;79.10;;;16.03;;
54121;SDS011;40029;58.708;50.190;2024-01-10T13:06:39;42.17;;;10.63;;
54121;SDS011;40029;58.708;50.190;2024-01-10T13:09:11;28.20;;;10.80;;
54121;SDS011;40029;58.708;50.190;2024-01-10T13:11:43;55.37;;;14.07;;
54121;SDS011;40029;58.708;50.190;2024-01-10T13:14:16;37.38;;;11.20;;
54121;SDS011;40029;58.708;50.190;2024-01-10T13:16:47;27.03;;;10.30;;
54121;SDS011;40029;58.708;50.190;2024-01-10T13:19:18;53.63;;;15.40;;
54121;SDS011;40029;58.708;50.190;2024-01-10T13:21:49;53.37;;;13.17;;
54121;SDS011;40029;58.708;50.190;2024-01-10T13:24:20;58.90;;;15.63;;
54121;SDS011;40029;58.708;50.190;2024-01-10T13:26:51;31.93;;;11.03;;
54121;SDS011;40029;58.708;50.190;2024-01-10T13:29:23;29.03;;;10.77;;
54121;SDS011;40029;58.708;50.190;2024-01-10T13:31:54;46.03;;;18.87;;
54121;SDS011;40029;58.708;50.190;2024-01-10T13:34:25;21.60;;;9.10;;
54121;SDS011;40029;58.708;50.190;2024-01-10T13:36:56;52.97;;;16.00;;
54121;SDS011;40029;58.708;50.190;2024-01-10T13:39:28;53.27;;;16.67;;
54121;SDS011;40029;58.708;50.190;2024-01-10T13:41:59;39.97;;;14.10;;
54121;SDS011;40029;58.708;50.190;2024-01-10T13:44:30;78.17;;;20.73;;
54121;SDS011;40029;58.708;50.190;2024-01-10T13:47:01;33.97;;;9.83;;
54121;SDS011;40029;58.708;50.190;2024-01-10T13:49:34;44.20;;;11.73;;
54121;SDS011;40029;58.708;50.190;2024-01-10T13:52:05;56.87;;;15.83;;
54121;SDS011;40029;58.708;50.190;2024-01-10T13:54:36;23.23;;;5.77;;
54121;SDS011;40029;58.708;50.190;2024-01-10T13:57:09;24.50;;;9.47;;
54121;SDS011;40029;58.708;50.190;2024-01-10T13:59:40;42.60;;;11.50;;
54121;SDS011;40029;58.708;50.190;2024-01-10T14:02:11;18.30;;;6.60;;
54121;SDS011;40029;58.708;50.190;2024-01-10T14:04:44;20.10;;;4.63;;
54121;SDS011;40029;58.708;50.190;2024-01-10T14:07:15;14.33;;;5.23;;
54121;SDS011;40029;58.708;50.190;2024-01-10T14:09:46;23.33;;;7.77;;
54121;SDS011;40029;58.708;50.190;2024-01-10T14:12:17;19.13;;;6.03;;
54121;SDS011;40029;58.708;50.190;2024-01-10T14:14:49;17.87;;;5.07;;
54121;SDS011;40029;58.708;50.190;2024-01-10T14:17:20;29.60;;;7.43;;
54121;SDS011;40029;58.708;50.190;2024-01-10T14:19:53;23.55;;;7.15;;
54121;SDS011;40029;58.708;50.190;2024-01-10T14:22:24;26.20;;;6.77;;
54121;SDS011;40029;58.708;50.190;2024-01-10T14:24:56;15.17;;;6.60;;
54121;SDS011;40029;58.708;50.190;2024-01-10T14:27:27;36.97;;;9.83;;
54121;SDS011;40029;58.708;50.190;2024-01-10T14:29:59;23.43;;;8.40;;
54121;SDS011;40029;58.708;50.190;2024-01-10T14:32:30;31.50;;;7.77;;
54121;SDS011;40029;58.708;50.190;2024-01-10T14:35:04;27.38;;;8.75;;
54121;SDS011;40029;58.708;50.190;2024-01-10T14:37:35;27.83;;;9.23;;
54121;SDS011;40029;58.708;50.190;2024-01-10T14:40:07;26.53;;;8.73;;
54121;SDS011;40029;58.708;50.190;2024-01-10T14:42:38;24.13;;;7.00;;
54121;SDS011;40029;58.708;50.190;2024-01-10T14:45:09;11.97;;;4.10;;
54121;SDS011;40029;58.708;50.190;2024-01-10T14:47:41;33.90;;;7.63;;
54121;SDS011;40029;58.708;50.190;2024-01-10T14:50:12;32.47;;;9.20;;
54121;SDS011;40029;58.708;50.190;2024-01-10T14:53:02;39.77;;;11.47;;
54121;SDS011;40029;58.708;50.190;2024-01-10T14:55:34;36.07;;;11.70;;
54121;SDS011;40029;58.708;50.190;2024-01-10T14:58:06;58.23;;;14.03;;
54121;SDS011;40029;58.708;50.190;2024-01-10T15:00:37;43.43;;;12.97;;
54121;SDS011;40029;58.708;50.190;2024-01-10T15:03:30;18.80;;;6.53;;
54121;SDS011;40029;58.708;50.190;2024-01-10T15:06:03;15.37;;;6.70;;
54121;SDS011;40029;58.708;50.190;2024-01-10T15:08:41;15.40;;;5.90;;
54121;SDS011;40029;58.708;50.190;2024-01-10T15:11:31;3.10;;;2.33;;
54121;SDS011;40029;58.708;50.190;2024-01-10T15:14:02;21.53;;;5.40;;
54121;SDS011;40029;58.708;50.190;2024-01-10T15:16:53;23.67;;;6.20;;